METAR Data
IDs: Format: Raw Decoded Include TAF

Data at: 1348 UTC 20 Oct 2021

METAR for:KBEA (Beeville Muni, TX, US)
Text:KBEA 201335Z AUTO 05003KT 7SM CLR 20/20 A3006 RMK AO2 T02030203
Temperature: 20.3°C ( 69°F)
Dewpoint: 20.3°C ( 69°F) [RH = 100%]
Pressure (altimeter):30.06 inches Hg (1018.0 mb)
Winds:from the NE (50 degrees) at 3 MPH (3 knots; 1.5 m/s)
Visibility: 7 sm ( 11 km)
Ceiling:at least 12,000 feet AGL
Clouds:sky clear below 12,000 feet AGL
QC Flag:automated observation with no human augmentation